Pagrindinis puslapis
METAR-TAF:

METAR-TAF

Oro uostai :

Batumis, Gruzija

platuma: 41-36-37N, ilguma: 041-35-58E, Aukštis: 32 m

Dabartinis oras

Ataskaita buvo paskelbta 38 minutes, ne 09:00 UTC
Vėjas 5 kt iš Šiaurės/Šiaurės Vakarų
Temperatūra 11°C
Drėgmė 71%
Slėgis 1025 hPa
Matomumas 10 km arba daugiau
Mažai debesys ne aukštis 11000 ft

METAR: UGSB 210900Z 33005KT 9999 FEW110 11/06 Q1025 NOSIG

Laikas: 13:38 (09:38 UTC)

Prognozė

Ataskaita buvo paskelbta 4 valandos ir 38 minutes, ne 05:00 UTC
Prognozė galioja nuo 21 metu 06 UTC su 22 metu 06 UTC
Vėjas 2 kt nuo kintamojo kryptimis
Matomumas 10 km arba daugiau
nėra debesų žemiau 1500 m ir nėra kamuolinių lietaus debesų
Tapsmas
nuo 21 metu 17 UTC su 21 metu 20 UTC
Vėjas 10 kt iš Rytų/Pietryčių
Mažai debesys ne aukštis 3000 ft
Su prošvaistėmis ne aukštis 10000 ft

TAF: UGSB 210500Z 2106/2206 VRB02KT CAVOK TX11/2110Z TN06/2202Z BECMG 2117/2120 12010KT FEW030 BKN100

Orai ataskaitas ir orų prognozės (METAR, TAF).

turimą stotys yra geltonos ir raudonos taškus žemėlapyje.

Perkelti pele per norėdami pamatyti stoties vardą.

Tada spustelėkite, norėdami matyti oro stebėjimo ir prognozės.

Norėdami pakeisti žemėlapį: spustelėkite ant žalios mygtukų su juodo kryžiaus žemyn,; žalią mygtuką su brūkšneliu, jei norite nutolinti; arba žalių rodyklių gretimoms žemėlapius.


METAR-TAF: